Kennedy Grace — WDG9120 — position and weather

sailwx.info

Track history (hours):
 
Tides and Currents Weather Stations Pressure Air Temp Water Temp Dewpoint Dewpoint Depression Visibility Wind Speed Wind Dir Waves Ship Positions

Kennedy Grace

Owner: Settoon Towing, LLC, Houma, LA. More information available from US FCC via Universal Licensing System and Coast Guard Vessel Documentation Center.

Last reported at 2017-Oct-18 12:13 UTC. Time now 2017-Oct-18 20:32 UTC.
Position N 29°47' W 095°04'.

; draft 3 m.

Type: Towing. MMSI: 367584530.

Date/timePositionNaut miles runAvg speedWind from/ knotsBaromVisibWave heightAir tempDewpointWater temp
2017-Oct-18 12:13N 29°47' W 095°04'0 0.0
2017-Oct-18 11:49N 29°47' W 095°04'  
2017-Oct-13 00:17N 29°46' W 095°05'2 6.7
2017-Oct-12 23:58N 29°44' W 095°03'3 5.8
2017-Oct-12 23:30N 29°42' W 095°01'3 5.8
2017-Oct-12 23:00N 29°40' W 094°59'3 6.9
2017-Oct-12 22:30N 29°37' W 094°57'4 7.1
2017-Oct-12 22:01N 29°34' W 094°55'3 0.3
2017-Oct-12 10:39N 29°31' W 094°53'1 7.1
2017-Oct-12 10:30N 29°32' W 094°54'4 7.2
2017-Oct-12 10:00N 29°35' W 094°56'4 7.0
2017-Oct-12 09:27N 29°39' W 094°58'3 6.8
2017-Oct-12 08:58N 29°42' W 094°60'4 6.2
2017-Oct-12 08:23N 29°44' W 095°03'3 0.2
2017-Oct-11 20:12N 29°44' W 095°06'1 6.0
2017-Oct-11 19:57N 29°44' W 095°08'4 5.4
2017-Oct-11 19:12N 29°44' W 095°13'1 1.6
2017-Oct-11 18:48N 29°44' W 095°13'0 0.1
2017-Oct-11 18:26N 29°44' W 095°13'0 0.0
2017-Oct-11 18:00N 29°44' W 095°13'0 0.0
2017-Oct-11 17:29N 29°44' W 095°13'0 0.0
2017-Oct-11 16:58N 29°44' W 095°13'  
2017-Oct-09 01:46N 29°46' W 095°05'2 6.5
2017-Oct-09 01:24N 29°44' W 095°03'2 0.5
2017-Oct-08 22:16N 29°44' W 095°01'0 0.0
2017-Oct-08 22:00N 29°44' W 095°01'0 0.0
2017-Oct-08 21:30N 29°44' W 095°01'0 0.0
2017-Oct-08 20:57N 29°44' W 095°01'0 0.0
2017-Oct-08 20:29N 29°44' W 095°01'0 0.0
2017-Oct-08 18:38N 29°44' W 095°01'0 0.0
2017-Oct-08 18:23N 29°44' W 095°01'0 0.0
2017-Oct-08 18:00N 29°44' W 095°01'0 0.0
2017-Oct-08 17:26N 29°44' W 095°01'0 0.0
2017-Oct-08 17:00N 29°44' W 095°01'0 0.0
2017-Oct-08 16:30N 29°44' W 095°01'0 0.0
2017-Oct-08 14:29N 29°44' W 095°01'0 0.0
2017-Oct-08 14:00N 29°44' W 095°01'0 0.0
2017-Oct-08 13:30N 29°44' W 095°01'0 0.0
2017-Oct-08 13:00N 29°44' W 095°01'0 0.0
2017-Oct-08 12:29N 29°44' W 095°01'  
Track history (hours):
 
Tides and Currents Weather Stations Pressure Air Temp Water Temp Dewpoint Dewpoint Depression Visibility Wind Speed Wind Dir Waves Ship Positions

Kennedy Grace

Owner: Settoon Towing, LLC, Houma, LA. More information available from US FCC via Universal Licensing System and Coast Guard Vessel Documentation Center.

Last reported at 2017-Oct-18 12:13 UTC. Time now 2017-Oct-18 20:32 UTC.
Position N 29°47' W 095°04'.

; draft 3 m.

Type: Towing. MMSI: 367584530.

Date/timePositionNaut miles runAvg speedWind from/ knotsBaromVisibWave heightAir tempDewpointWater temp
2017-Oct-18 12:13N 29°47' W 095°04'0 0.0
2017-Oct-18 11:49N 29°47' W 095°04'  
2017-Oct-13 00:17N 29°46' W 095°05'2 6.7
2017-Oct-12 23:58N 29°44' W 095°03'3 5.8
2017-Oct-12 23:30N 29°42' W 095°01'3 5.8
2017-Oct-12 23:00N 29°40' W 094°59'3 6.9
2017-Oct-12 22:30N 29°37' W 094°57'4 7.1
2017-Oct-12 22:01N 29°34' W 094°55'3 0.3
2017-Oct-12 10:39N 29°31' W 094°53'1 7.1
2017-Oct-12 10:30N 29°32' W 094°54'4 7.2
2017-Oct-12 10:00N 29°35' W 094°56'4 7.0
2017-Oct-12 09:27N 29°39' W 094°58'3 6.8
2017-Oct-12 08:58N 29°42' W 094°60'4 6.2
2017-Oct-12 08:23N 29°44' W 095°03'3 0.2
2017-Oct-11 20:12N 29°44' W 095°06'1 6.0
2017-Oct-11 19:57N 29°44' W 095°08'4 5.4
2017-Oct-11 19:12N 29°44' W 095°13'1 1.6
2017-Oct-11 18:48N 29°44' W 095°13'0 0.1
2017-Oct-11 18:26N 29°44' W 095°13'0 0.0
2017-Oct-11 18:00N 29°44' W 095°13'0 0.0
2017-Oct-11 17:29N 29°44' W 095°13'0 0.0
2017-Oct-11 16:58N 29°44' W 095°13'  
2017-Oct-09 01:46N 29°46' W 095°05'2 6.5
2017-Oct-09 01:24N 29°44' W 095°03'2 0.5
2017-Oct-08 22:16N 29°44' W 095°01'0 0.0
2017-Oct-08 22:00N 29°44' W 095°01'0 0.0
2017-Oct-08 21:30N 29°44' W 095°01'0 0.0
2017-Oct-08 20:57N 29°44' W 095°01'0 0.0
2017-Oct-08 20:29N 29°44' W 095°01'0 0.0
2017-Oct-08 18:38N 29°44' W 095°01'0 0.0
2017-Oct-08 18:23N 29°44' W 095°01'0 0.0
2017-Oct-08 18:00N 29°44' W 095°01'0 0.0
2017-Oct-08 17:26N 29°44' W 095°01'0 0.0
2017-Oct-08 17:00N 29°44' W 095°01'0 0.0
2017-Oct-08 16:30N 29°44' W 095°01'0 0.0
2017-Oct-08 14:29N 29°44' W 095°01'0 0.0
2017-Oct-08 14:00N 29°44' W 095°01'0 0.0
2017-Oct-08 13:30N 29°44' W 095°01'0 0.0
2017-Oct-08 13:00N 29°44' W 095°01'0 0.0
2017-Oct-08 12:29N 29°44' W 095°01'  

Dump ship's entire track history